Time;durP1;ratioP1;P1;durP2;ratioP2;P2;SDS_P1;SDS_P2;PMS_P1;PMS_P2;Temp;Humidity;BMP_temperature;BMP_pressure;BME280_temperature;BME280_humidity;BME280_pressure;Samples;Min_cycle;Max_cycle;Signal;HPM_P1;HPM_P2
2021/08/08 00:01:38;;;;;;;;;;;;;;;;;;5102761;28;1380;-58
2021/08/08 00:04:04;;;;;;;;;;;;;;;;;;5100944;28;1537;-56
2021/08/08 00:06:29;;;;;;;;;;;;;;;;;;5102300;28;1989;-56
2021/08/08 00:08:54;;;;;;;;;;;;;;;;;;5102376;28;1336;-57
2021/08/08 00:11:19;;;;;;;;;;;;;;;;;;5100988;28;1644;-57
2021/08/08 00:13:45;;;;;;;;;;;;;;;;;;5101854;28;1159;-57
2021/08/08 00:16:10;;;;;;;;;;;;;;;;;;5102755;28;1295;-57
2021/08/08 00:18:35;;;;;;;;;;;;;;;;;;5105530;27;1440;-55
2021/08/08 00:21:00;;;;;;;;;;;;;;;;;;5103924;27;1612;-57
2021/08/08 00:23:25;;;;;;;;;;;;;;;;;;5101023;28;1084;-56
2021/08/08 00:25:51;;;;;;;;;;;;;;;;;;5101365;28;1972;-54
2021/08/08 00:28:16;;;;;;;;;;;;;;;;;;5104384;28;2091;-56
2021/08/08 00:30:41;;;;;;;;;;;;;;;;;;5101607;28;1234;-54
2021/08/08 00:33:06;;;;;;;;;;;;;;;;;;5101257;28;1140;-57
2021/08/08 00:35:31;;;;;;;;;;;;;;;;;;5102894;28;1568;-56
2021/08/08 00:37:57;;;;;;;;;;;;;;;;;;5100666;27;1023;-57
2021/08/08 00:40:22;;;;;;;;;;;;;;;;;;5101658;28;1103;-57
2021/08/08 00:42:47;;;;;;;;;;;;;;;;;;5101699;28;1526;-58
2021/08/08 00:45:13;;;;;;;;;;;;;;;;;;5100381;28;1980;-57
2021/08/08 00:47:38;;;;;;;;;;;;;;;;;;5101332;28;1561;-56
2021/08/08 00:50:04;;;;;;;;;;;;;;;;;;5102544;28;1514;-57
2021/08/08 00:52:29;;;;;;;;;;;;;;;;;;5100380;28;1774;-56
2021/08/08 00:54:54;;;;;;;;;;;;;;;;;;5101972;28;1236;-57
2021/08/08 00:57:19;;;;;;;;;;;;;;;;;;5101372;28;1608;-57
2021/08/08 00:59:44;;;;;;;;;;;;;;;;;;5096422;28;1213;-56
2021/08/08 01:02:10;;;;;;;;;;;;;;;;;;5118407;27;1208;-57
2021/08/08 01:04:55;;;;;;;;;;;;;;;;;;5094491;28;1382;-56
2021/08/08 01:07:22;;;;;;;;;;;;;;;;;;5098459;28;1969;-58
2021/08/08 01:09:52;;;;;;;;;;;;;;;;;;5100178;28;1028;-57
2021/08/08 01:12:17;;;;;;;;;;;;;;;;;;5099616;28;1624;-57
2021/08/08 01:14:42;;;;;;;;;;;;;;;;;;5115301;22;3563;-55
2021/08/08 01:17:08;;;;;;;;;;;;;;;;;;5096178;28;1651;-55
2021/08/08 01:19:35;;;;;;;;;;;;;;;;;;5100217;28;1444;-53
2021/08/08 01:22:02;;;;;;;;;;;;;;;;;;5101775;28;1163;-57
2021/08/08 01:24:27;;;;;;;;;;;;;;;;;;5084228;28;1460;-55
2021/08/08 01:26:52;;;;;;;;;;;;;;;;;;5097380;28;1910;-56
2021/08/08 01:29:17;;;;;;;;;;;;;;;;;;5078928;28;1539;-56
2021/08/08 01:31:52;;;;;;;;;;;;;;;;;;5100107;28;1215;-57
2021/08/08 01:34:18;;;;;;;;;;;;;;;;;;5097141;28;1245;-55
2021/08/08 01:36:44;;;;;;;;;;;;;;;;;;5097349;28;1624;-57
2021/08/08 01:39:10;;;;;;;;;;;;;;;;;;5098895;28;1433;-55
2021/08/08 01:41:37;;;;;;;;;;;;;;;;;;5079609;28;1614;-56
2021/08/08 01:44:02;;;;;;;;;;;;;;;;;;5082421;28;1305;-57
2021/08/08 01:46:27;;;;;;;;;;;;;;;;;;5082691;28;1965;-57
2021/08/08 01:48:53;;;;;;;;;;;;;;;;;;5098571;28;1371;-56
2021/08/08 01:51:19;;;;;;;;;;;;;;;;;;5081660;28;1599;-54
2021/08/08 01:53:44;;;;;;;;;;;;;;;;;;5075793;28;1218;-56
2021/08/08 01:56:11;;;;;;;;;;;;;;;;;;5079234;28;1498;-55
2021/08/08 01:58:36;;;;;;;;;;;;;;;;;;5097305;28;1357;-55
2021/08/08 02:01:01;;;;;;;;;;;;;;;;;;5083489;28;1215;-54
2021/08/08 02:03:36;;;;;;;;;;;;;;;;;;5097557;28;1260;-54
2021/08/08 02:06:01;;;;;;;;;;;;;;;;;;5098290;28;1909;-54
2021/08/08 02:08:27;;;;;;;;;;;;;;;;;;5092089;28;1493;-56
2021/08/08 02:10:52;;;;;;;;;;;;;;;;;;5101552;28;1638;-53
2021/08/08 02:13:17;;;;;;;;;;;;;;;;;;5098745;28;955;-55
2021/08/08 02:15:42;;;;;;;;;;;;;;;;;;5094982;28;1441;-56
2021/08/08 02:18:07;;;;;;;;;;;;;;;;;;5100796;28;1235;-55
2021/08/08 02:20:32;;;;;;;;;;;;;;;;;;5091352;28;1529;-53
2021/08/08 02:22:58;;;;;;;;;;;;;;;;;;5100248;28;1314;-56
2021/08/08 02:25:23;;;;;;;;;;;;;;;;;;5098421;28;1910;-56
2021/08/08 02:27:48;;;;;;;;;;;;;;;;;;5091869;28;1542;-56
2021/08/08 02:30:13;;;;;;;;;;;;;;;;;;5045208;28;1258;-55
2021/08/08 02:32:38;;;;;;;;;;;;;;;;;;5099125;28;1219;-56
2021/08/08 02:35:04;;;;;;;;;;;;;;;;;;5100137;28;1268;-56
2021/08/08 02:37:29;;;;;;;;;;;;;;;;;;5095204;28;1554;-56
2021/08/08 02:39:54;;;;;;;;;;;;;;;;;;5099731;28;1115;-54
2021/08/08 02:42:19;;;;;;;;;;;;;;;;;;5095375;28;1559;-56
2021/08/08 02:44:44;;;;;;;;;;;;;;;;;;5096691;28;1365;-56
2021/08/08 02:47:10;;;;;;;;;;;;;;;;;;5097484;28;1905;-54
2021/08/08 02:49:35;;;;;;;;;;;;;;;;;;5093730;28;1549;-55
2021/08/08 02:52:00;;;;;;;;;;;;;;;;;;5099981;28;1314;-54
2021/08/08 02:54:25;;;;;;;;;;;;;;;;;;5096217;28;1225;-57
2021/08/08 02:56:50;;;;;;;;;;;;;;;;;;5096279;28;1629;-55
2021/08/08 02:59:16;;;;;;;;;;;;;;;;;;5097275;28;986;-55
2021/08/08 03:01:41;;;;;;;;;;;;;;;;;;5099334;28;1152;-55
2021/08/08 03:04:06;;;;;;;;;;;;;;;;;;5096550;28;1641;-56
2021/08/08 03:06:31;;;;;;;;;;;;;;;;;;5099172;28;1901;-54
2021/08/08 03:08:56;;;;;;;;;;;;;;;;;;5098093;28;1088;-56
2021/08/08 03:11:21;;;;;;;;;;;;;;;;;;5098011;28;1507;-56
2021/08/08 03:13:46;;;;;;;;;;;;;;;;;;5095999;28;1662;-55
2021/08/08 03:16:12;;;;;;;;;;;;;;;;;;5097833;28;1288;-55
2021/08/08 03:18:37;;;;;;;;;;;;;;;;;;5100035;28;1092;-55
2021/08/08 03:21:02;;;;;;;;;;;;;;;;;;5104180;28;1239;-56
2021/08/08 03:23:28;;;;;;;;;;;;;;;;;;5096107;28;1605;-55
2021/08/08 03:25:54;;;;;;;;;;;;;;;;;;5100530;28;1910;-53
2021/08/08 03:28:19;;;;;;;;;;;;;;;;;;5100951;28;1209;-54
2021/08/08 03:30:44;;;;;;;;;;;;;;;;;;5102043;28;1085;-56
2021/08/08 03:33:09;;;;;;;;;;;;;;;;;;5098444;28;1459;-54
2021/08/08 03:35:34;;;;;;;;;;;;;;;;;;5098072;28;1638;-56
2021/08/08 03:38:01;;;;;;;;;;;;;;;;;;5101546;28;1152;-54
2021/08/08 03:40:26;;;;;;;;;;;;;;;;;;5101778;28;1406;-56
2021/08/08 03:42:51;;;;;;;;;;;;;;;;;;5101115;28;1555;-55
2021/08/08 03:45:17;;;;;;;;;;;;;;;;;;5102573;28;1975;-57
2021/08/08 03:47:42;;;;;;;;;;;;;;;;;;5100111;28;1338;-55
2021/08/08 03:50:07;;;;;;;;;;;;;;;;;;5100723;28;1629;-56
2021/08/08 03:52:32;;;;;;;;;;;;;;;;;;5102786;28;1186;-54
2021/08/08 03:54:58;;;;;;;;;;;;;;;;;;5101978;28;1291;-55
2021/08/08 03:57:23;;;;;;;;;;;;;;;;;;5098122;28;1610;-56
2021/08/08 03:59:48;;;;;;;;;;;;;;;;;;5096137;28;1537;-54
2021/08/08 04:02:13;;;;;;;;;;;;;;;;;;5101526;28;1238;-55
2021/08/08 04:04:38;;;;;;;;;;;;;;;;;;5080792;28;1294;-54
2021/08/08 04:07:03;;;;;;;;;;;;;;;;;;5098868;28;1914;-56
2021/08/08 04:09:29;;;;;;;;;;;;;;;;;;5101256;28;1391;-55
2021/08/08 04:11:54;;;;;;;;;;;;;;;;;;5099241;28;1553;-56
2021/08/08 04:14:19;;;;;;;;;;;;;;;;;;5102506;28;1391;-54
2021/08/08 04:16:44;;;;;;;;;;;;;;;;;;5099949;28;1254;-56
2021/08/08 04:19:09;;;;;;;;;;;;;;;;;;5101730;28;1658;-52
2021/08/08 04:21:34;;;;;;;;;;;;;;;;;;5100265;28;1546;-56
2021/08/08 04:24:00;;;;;;;;;;;;;;;;;;5101056;28;1184;-54
2021/08/08 04:26:25;;;;;;;;;;;;;;;;;;5094919;28;1914;-55
2021/08/08 04:28:50;;;;;;;;;;;;;;;;;;5095436;28;1434;-55
2021/08/08 04:31:15;;;;;;;;;;;;;;;;;;5099782;28;1163;-54
2021/08/08 04:33:40;;;;;;;;;;;;;;;;;;5099549;28;1261;-55
2021/08/08 04:36:05;;;;;;;;;;;;;;;;;;5100649;28;1660;-55
2021/08/08 04:38:31;;;;;;;;;;;;;;;;;;5101672;28;1152;-55
2021/08/08 04:40:56;;;;;;;;;;;;;;;;;;5101043;28;1617;-57
2021/08/08 04:43:21;;;;;;;;;;;;;;;;;;5098049;28;1528;-55
2021/08/08 04:45:46;;;;;;;;;;;;;;;;;;5101799;28;1973;-56
2021/08/08 04:48:11;;;;;;;;;;;;;;;;;;5100648;28;1237;-55
2021/08/08 04:50:37;;;;;;;;;;;;;;;;;;5098511;28;1569;-57
2021/08/08 04:53:02;;;;;;;;;;;;;;;;;;5101147;28;1132;-54
2021/08/08 04:55:27;;;;;;;;;;;;;;;;;;5101870;28;1332;-54
2021/08/08 04:57:52;;;;;;;;;;;;;;;;;;5095194;28;1558;-52
2021/08/08 05:00:18;;;;;;;;;;;;;;;;;;5095712;28;1225;-54
2021/08/08 05:02:46;;;;;;;;;;;;;;;;;;5100324;28;1108;-56
2021/08/08 05:05:12;;;;;;;;;;;;;;;;;;5095280;28;1922;-56
2021/08/08 05:07:40;;;;;;;;;;;;;;;;;;5101070;28;1128;-56
2021/08/08 05:10:06;;;;;;;;;;;;;;;;;;5101488;28;1168;-54
2021/08/08 05:12:31;;;;;;;;;;;;;;;;;;5098044;28;1613;-56
2021/08/08 05:14:57;;;;;;;;;;;;;;;;;;5099822;28;1249;-54
2021/08/08 05:17:22;;;;;;;;;;;;;;;;;;5101155;28;1222;-56
2021/08/08 05:19:47;;;;;;;;;;;;;;;;;;5094861;28;1502;-54
2021/08/08 05:22:12;;;;;;;;;;;;;;;;;;5098865;28;1171;-55
2021/08/08 05:24:37;;;;;;;;;;;;;;;;;;5093173;28;1549;-54
2021/08/08 05:27:03;;;;;;;;;;;;;;;;;;5099462;28;1967;-56
2021/08/08 05:29:28;;;;;;;;;;;;;;;;;;5095288;28;1599;-54
2021/08/08 05:31:53;;;;;;;;;;;;;;;;;;5099280;28;1248;-56
2021/08/08 05:34:18;;;;;;;;;;;;;;;;;;5101057;28;1332;-55
2021/08/08 05:36:43;;;;;;;;;;;;;;;;;;5099919;28;1375;-56
2021/08/08 05:39:08;;;;;;;;;;;;;;;;;;5097936;28;1621;-53
2021/08/08 05:41:34;;;;;;;;;;;;;;;;;;5097217;28;1590;-55
2021/08/08 05:43:59;;;;;;;;;;;;;;;;;;5097569;28;1041;-54
2021/08/08 05:46:24;;;;;;;;;;;;;;;;;;5096728;28;1897;-53
2021/08/08 05:48:49;;;;;;;;;;;;;;;;;;5099183;28;1254;-57
2021/08/08 05:51:14;;;;;;;;;;;;;;;;;;5098336;28;1562;-55
2021/08/08 05:53:40;;;;;;;;;;;;;;;;;;5094714;28;1514;-56
2021/08/08 05:56:05;;;;;;;;;;;;;;;;;;5095107;28;1549;-54
2021/08/08 05:58:30;;;;;;;;;;;;;;;;;;5098983;28;1370;-56
2021/08/08 06:00:55;;;;;;;;;;;;;;;;;;5098755;28;993;-54
2021/08/08 06:03:20;;;;;;;;;;;;;;;;;;5100351;28;1115;-57
2021/08/08 06:05:46;;;;;;;;;;;;;;;;;;5099533;28;1980;-54
2021/08/08 06:08:11;;;;;;;;;;;;;;;;;;5098012;28;1481;-55
2021/08/08 06:10:37;;;;;;;;;;;;;;;;;;5100328;28;1211;-54
2021/08/08 06:13:02;;;;;;;;;;;;;;;;;;5096336;28;1482;-55
2021/08/08 06:15:28;;;;;;;;;;;;;;;;;;5099858;28;1324;-55
2021/08/08 06:17:53;;;;;;;;;;;;;;;;;;5096240;28;1419;-55
2021/08/08 06:20:18;;;;;;;;;;;;;;;;;;5097544;28;1466;-56
2021/08/08 06:22:43;;;;;;;;;;;;;;;;;;5091839;28;1502;-55
2021/08/08 06:25:09;;;;;;;;;;;;;;;;;;5096922;28;1373;-56
2021/08/08 06:27:34;;;;;;;;;;;;;;;;;;5097709;28;1906;-54
2021/08/08 06:29:59;;;;;;;;;;;;;;;;;;5099681;28;1164;-55
2021/08/08 06:32:24;;;;;;;;;;;;;;;;;;5088379;28;1564;-56
2021/08/08 06:34:49;;;;;;;;;;;;;;;;;;5094882;28;1349;-56
2021/08/08 06:37:14;;;;;;;;;;;;;;;;;;5097593;28;1441;-56
2021/08/08 06:39:41;;;;;;;;;;;;;;;;;;5097677;28;1457;-56
2021/08/08 06:42:06;;;;;;;;;;;;;;;;;;5093775;28;1577;-55
2021/08/08 06:44:31;;;;;;;;;;;;;;;;;;5096557;28;1263;-56
2021/08/08 06:46:56;;;;;;;;;;;;;;;;;;5094779;28;1923;-56
2021/08/08 06:49:21;;;;;;;;;;;;;;;;;;5098021;28;1474;-54
2021/08/08 06:51:47;;;;;;;;;;;;;;;;;;5099906;28;1219;-54
2021/08/08 06:54:12;;;;;;;;;;;;;;;;;;5102553;28;1204;-54
2021/08/08 06:56:37;;;;;;;;;;;;;;;;;;5100947;28;1570;-55
2021/08/08 06:59:03;;;;;;;;;;;;;;;;;;5099398;28;1350;-54
2021/08/08 07:01:28;;;;;;;;;;;;;;;;;;5103469;28;1163;-54
2021/08/08 07:03:53;;;;;;;;;;;;;;;;;;5100995;28;1163;-56
2021/08/08 07:06:18;;;;;;;;;;;;;;;;;;5099398;28;1976;-55
2021/08/08 07:08:43;;;;;;;;;;;;;;;;;;5101397;28;1414;-55
2021/08/08 07:11:08;;;;;;;;;;;;;;;;;;5102211;28;1594;-55
2021/08/08 07:13:37;;;;;;;;;;;;;;;;;;5103295;28;1314;-55
2021/08/08 07:16:02;;;;;;;;;;;;;;;;;;5133430;22;1720;-55
2021/08/08 07:18:27;;;;;;;;;;;;;;;;;;5128283;27;1311;-56
2021/08/08 07:20:52;;;;;;;;;;;;;;;;;;5125267;27;1599;-55
2021/08/08 07:23:17;;;;;;;;;;;;;;;;;;5122751;27;1387;-57
2021/08/08 07:25:43;;;;;;;;;;;;;;;;;;5119650;27;1909;-56
2021/08/08 07:28:08;;;;;;;;;;;;;;;;;;5102891;28;1743;-55
2021/08/08 07:30:33;;;;;;;;;;;;;;;;;;5103268;28;1221;-55
2021/08/08 07:32:58;;;;;;;;;;;;;;;;;;5102738;28;1246;-56
2021/08/08 07:35:26;;;;;;;;;;;;;;;;;;5100992;28;1624;-56
2021/08/08 07:37:51;;;;;;;;;;;;;;;;;;5102572;28;1167;-56
2021/08/08 07:40:16;;;;;;;;;;;;;;;;;;5098260;28;1191;-55
2021/08/08 07:42:46;;;;;;;;;;;;;;;;;;5100744;28;1503;-55
2021/08/08 07:45:11;;;;;;;;;;;;;;;;;;5100868;28;1699;-56
2021/08/08 07:47:36;;;;;;;;;;;;;;;;;;5102334;28;1901;-55
2021/08/08 07:50:02;;;;;;;;;;;;;;;;;;5103702;28;1151;-55
2021/08/08 07:52:27;;;;;;;;;;;;;;;;;;5103944;28;1123;-55
2021/08/08 07:54:52;;;;;;;;;;;;;;;;;;5102102;28;1600;-56
2021/08/08 07:57:17;;;;;;;;;;;;;;;;;;5101953;28;1612;-56
2021/08/08 07:59:42;;;;;;;;;;;;;;;;;;5103551;28;1270;-54
2021/08/08 08:02:07;;;;;;;;;;;;;;;;;;5103523;28;1140;-56
2021/08/08 08:04:32;;;;;;;;;;;;;;;;;;5103162;28;1532;-55
2021/08/08 08:06:58;;;;;;;;;;;;;;;;;;5102561;28;1905;-55
2021/08/08 08:09:23;;;;;;;;;;;;;;;;;;5101753;28;1158;-56
2021/08/08 08:11:48;;;;;;;;;;;;;;;;;;5101473;28;1505;-55
2021/08/08 08:14:13;;;;;;;;;;;;;;;;;;5102612;28;1658;-55
2021/08/08 08:16:38;;;;;;;;;;;;;;;;;;5101254;28;1314;-56
2021/08/08 08:19:04;;;;;;;;;;;;;;;;;;5103914;28;1159;-55
2021/08/08 08:21:29;;;;;;;;;;;;;;;;;;5102988;28;1612;-56
2021/08/08 08:23:54;;;;;;;;;;;;;;;;;;5098514;28;1593;-55
2021/08/08 08:26:19;;;;;;;;;;;;;;;;;;5100997;28;1909;-55
2021/08/08 08:28:44;;;;;;;;;;;;;;;;;;5108556;28;1218;-55
2021/08/08 08:31:10;;;;;;;;;;;;;;;;;;5105835;28;1191;-56
2021/08/08 08:33:35;;;;;;;;;;;;;;;;;;5104193;28;1234;-55
2021/08/08 08:36:00;;;;;;;;;;;;;;;;;;5101636;28;1526;-56
2021/08/08 08:38:25;;;;;;;;;;;;;;;;;;5098671;28;1553;-55
2021/08/08 08:40:51;;;;;;;;;;;;;;;;;;5101214;28;1633;-56
2021/08/08 08:43:16;;;;;;;;;;;;;;;;;;5100556;28;1748;-56
2021/08/08 08:45:42;;;;;;;;;;;;;;;;;;5099631;28;1984;-56
2021/08/08 08:48:07;;;;;;;;;;;;;;;;;;5099919;28;1528;-56
2021/08/08 08:50:32;;;;;;;;;;;;;;;;;;5100588;28;1167;-56
2021/08/08 08:52:57;;;;;;;;;;;;;;;;;;5099302;28;1218;-56
2021/08/08 08:55:23;;;;;;;;;;;;;;;;;;5099954;28;1307;-56
2021/08/08 08:57:48;;;;;;;;;;;;;;;;;;5099087;28;1555;-55
2021/08/08 09:00:13;;;;;;;;;;;;;;;;;;5100337;28;1152;-55
2021/08/08 09:02:39;;;;;;;;;;;;;;;;;;5100268;28;1180;-55
2021/08/08 09:05:04;;;;;;;;;;;;;;;;;;5102906;28;1660;-56
2021/08/08 09:07:29;;;;;;;;;;;;;;;;;;5102197;28;1959;-55
2021/08/08 09:09:54;;;;;;;;;;;;;;;;;;5101409;28;1171;-56
2021/08/08 09:12:21;;;;;;;;;;;;;;;;;;5101259;28;1533;-58
2021/08/08 09:14:54;;;;;;;;;;;;;;;;;;5101143;28;1454;-58
2021/08/08 09:17:21;;;;;;;;;;;;;;;;;;5100432;28;1314;-58
2021/08/08 09:19:46;;;;;;;;;;;;;;;;;;5100381;28;1556;-58
2021/08/08 09:22:19;;;;;;;;;;;;;;;;;;5100370;28;1459;-57
2021/08/08 09:24:44;;;;;;;;;;;;;;;;;;5099687;28;1195;-58
2021/08/08 09:27:12;;;;;;;;;;;;;;;;;;5100416;28;1906;-58
2021/08/08 09:29:39;;;;;;;;;;;;;;;;;;5101583;28;1234;-58
2021/08/08 09:32:04;;;;;;;;;;;;;;;;;;5100125;28;1368;-58
2021/08/08 09:34:33;;;;;;;;;;;;;;;;;;5098352;28;1528;-59
2021/08/08 09:37:03;;;;;;;;;;;;;;;;;;5102529;28;1283;-58
2021/08/08 09:39:29;;;;;;;;;;;;;;;;;;5100088;28;1461;-58
2021/08/08 09:42:03;;;;;;;;;;;;;;;;;;5101947;28;1615;-59
2021/08/08 09:44:28;;;;;;;;;;;;;;;;;;5099902;28;1506;-58
2021/08/08 09:46:57;;;;;;;;;;;;;;;;;;5098898;28;1899;-57
2021/08/08 09:49:23;;;;;;;;;;;;;;;;;;5098739;28;1528;-57
2021/08/08 09:51:48;;;;;;;;;;;;;;;;;;5099029;27;1111;-57
2021/08/08 09:54:14;;;;;;;;;;;;;;;;;;5101068;28;1174;-57
2021/08/08 09:56:39;;;;;;;;;;;;;;;;;;5099680;28;1501;-59
2021/08/08 09:59:05;;;;;;;;;;;;;;;;;;5096564;28;1624;-57
2021/08/08 10:01:30;;;;;;;;;;;;;;;;;;5100207;28;1162;-58
2021/08/08 10:03:55;;;;;;;;;;;;;;;;;;5098186;28;1318;-58
2021/08/08 10:06:20;;;;;;;;;;;;;;;;;;5101823;28;1965;-53
2021/08/08 10:08:47;;;;;;;;;;;;;;;;;;5095664;28;1037;-58
2021/08/08 10:11:12;;;;;;;;;;;;;;;;;;5096667;28;1573;-55
2021/08/08 10:13:37;;;;;;;;;;;;;;;;;;5098891;28;1218;-53
2021/08/08 10:16:05;;;;;;;;;;;;;;;;;;5098528;28;1276;-58
2021/08/08 10:18:32;;;;;;;;;;;;;;;;;;5100590;28;1231;-58
2021/08/08 10:20:57;;;;;;;;;;;;;;;;;;5096019;28;1505;-57
2021/08/08 10:23:22;;;;;;;;;;;;;;;;;;5098702;28;1553;-58
2021/08/08 10:25:49;;;;;;;;;;;;;;;;;;5098615;28;1898;-58
2021/08/08 10:28:14;;;;;;;;;;;;;;;;;;5100007;28;1591;-58
2021/08/08 10:30:39;;;;;;;;;;;;;;;;;;5099951;28;1155;-58
2021/08/08 10:33:05;;;;;;;;;;;;;;;;;;5100642;28;1233;-57
2021/08/08 10:35:40;;;;;;;;;;;;;;;;;;5099607;28;1544;-57
2021/08/08 10:38:05;;;;;;;;;;;;;;;;;;5100516;28;1107;-58
2021/08/08 10:40:33;;;;;;;;;;;;;;;;;;5100481;28;1357;-58
2021/08/08 10:42:59;;;;;;;;;;;;;;;;;;5096267;28;1512;-58
2021/08/08 10:45:25;;;;;;;;;;;;;;;;;;5098838;28;1295;-59
2021/08/08 10:47:57;;;;;;;;;;;;;;;;;;5098880;28;1910;-58
2021/08/08 10:50:23;;;;;;;;;;;;;;;;;;5100087;28;1573;-59
2021/08/08 10:52:48;;;;;;;;;;;;;;;;;;5093528;28;1401;-58
2021/08/08 10:55:28;;;;;;;;;;;;;;;;;;5098442;28;1303;-58
2021/08/08 10:57:53;;;;;;;;;;;;;;;;;;5099190;28;1604;-59
2021/08/08 11:00:18;;;;;;;;;;;;;;;;;;5099046;28;1108;-59
2021/08/08 11:02:47;;;;;;;;;;;;;;;;;;5100547;28;1183;-57
2021/08/08 11:05:12;;;;;;;;;;;;;;;;;;5100054;28;1418;-58
2021/08/08 11:07:37;;;;;;;;;;;;;;;;;;5097450;28;1893;-58
2021/08/08 11:10:03;;;;;;;;;;;;;;;;;;5093361;28;1188;-58
2021/08/08 11:12:31;;;;;;;;;;;;;;;;;;5098252;28;1612;-58
2021/08/08 11:14:56;;;;;;;;;;;;;;;;;;5101334;28;1000;-57
2021/08/08 11:17:24;;;;;;;;;;;;;;;;;;5099176;28;1251;-59
2021/08/08 11:19:49;;;;;;;;;;;;;;;;;;5097782;28;1676;-58
2021/08/08 11:22:15;;;;;;;;;;;;;;;;;;5097872;28;1150;-57
2021/08/08 11:24:41;;;;;;;;;;;;;;;;;;5119148;28;1144;-57
2021/08/08 11:27:06;;;;;;;;;;;;;;;;;;5097296;28;1910;-57
2021/08/08 11:29:32;;;;;;;;;;;;;;;;;;5099428;28;1281;-58
2021/08/08 11:31:57;;;;;;;;;;;;;;;;;;5096312;28;1052;-57
2021/08/08 11:34:23;;;;;;;;;;;;;;;;;;5099974;28;1541;-57
2021/08/08 11:36:48;;;;;;;;;;;;;;;;;;5100005;28;1298;-57
2021/08/08 11:39:13;;;;;;;;;;;;;;;;;;5098896;28;1215;-57
2021/08/08 11:41:39;;;;;;;;;;;;;;;;;;5102086;28;1567;-58
2021/08/08 11:44:04;;;;;;;;;;;;;;;;;;5100254;28;1592;-58
2021/08/08 11:46:29;;;;;;;;;;;;;;;;;;5104135;28;1970;-58
2021/08/08 11:48:55;;;;;;;;;;;;;;;;;;5102886;28;1223;-57
2021/08/08 11:51:20;;;;;;;;;;;;;;;;;;5102773;28;1160;-56
2021/08/08 11:53:45;;;;;;;;;;;;;;;;;;5102593;28;1565;-56
2021/08/08 11:56:14;;;;;;;;;;;;;;;;;;5097063;28;2053;-53
2021/08/08 11:58:48;;;;;;;;;;;;;;;;;;5101830;28;1174;-56
2021/08/08 12:01:16;;;;;;;;;;;;;;;;;;5103483;28;1233;-57
2021/08/08 12:03:41;;;;;;;;;;;;;;;;;;5101943;28;1183;-58
2021/08/08 12:06:06;;;;;;;;;;;;;;;;;;5099511;28;1905;-58
2021/08/08 12:08:31;;;;;;;;;;;;;;;;;;5100259;28;1136;-58
2021/08/08 12:10:57;;;;;;;;;;;;;;;;;;5100254;28;1576;-56
2021/08/08 12:13:23;;;;;;;;;;;;;;;;;;5102380;28;977;-57
2021/08/08 12:15:48;;;;;;;;;;;;;;;;;;5103656;28;1574;-56
2021/08/08 12:18:15;;;;;;;;;;;;;;;;;;5102764;28;1210;-57
2021/08/08 12:20:41;;;;;;;;;;;;;;;;;;5101634;28;1593;-56
2021/08/08 12:23:13;;;;;;;;;;;;;;;;;;5102665;28;1159;-57
2021/08/08 12:25:38;;;;;;;;;;;;;;;;;;5102677;28;1913;-56
2021/08/08 12:28:04;;;;;;;;;;;;;;;;;;5102117;28;1640;-57
2021/08/08 12:30:29;;;;;;;;;;;;;;;;;;5101120;28;1410;-56
2021/08/08 12:33:07;;;;;;;;;;;;;;;;;;5102067;28;1277;-57
2021/08/08 12:35:36;;;;;;;;;;;;;;;;;;5100156;28;1568;-56
2021/08/08 12:38:08;;;;;;;;;;;;;;;;;;5101645;28;1749;-56
2021/08/08 12:40:50;;;;;;;;;;;;;;;;;;5102262;28;1171;-56
2021/08/08 12:43:19;;;;;;;;;;;;;;;;;;5100984;28;1732;-57
2021/08/08 12:45:45;;;;;;;;;;;;;;;;;;5101592;28;1976;-57
2021/08/08 12:48:10;;;;;;;;;;;;;;;;;;5098321;28;1625;-56
2021/08/08 12:50:39;;;;;;;;;;;;;;;;;;5101092;28;1124;-55
2021/08/08 12:53:06;;;;;;;;;;;;;;;;;;5100075;28;1404;-56
2021/08/08 12:55:31;;;;;;;;;;;;;;;;;;5098891;28;1582;-56
2021/08/08 12:57:56;;;;;;;;;;;;;;;;;;5101151;28;1554;-57
2021/08/08 13:00:21;;;;;;;;;;;;;;;;;;5100032;28;1107;-57
2021/08/08 13:02:50;;;;;;;;;;;;;;;;;;5098391;28;1218;-56
2021/08/08 13:05:15;;;;;;;;;;;;;;;;;;5100873;28;1418;-56
2021/08/08 13:07:40;;;;;;;;;;;;;;;;;;5100241;28;1905;-56
2021/08/08 13:10:06;;;;;;;;;;;;;;;;;;5102352;28;1301;-55
2021/08/08 13:12:32;;;;;;;;;;;;;;;;;;5100463;28;1636;-56
2021/08/08 13:14:57;;;;;;;;;;;;;;;;;;5101709;28;1556;-57
2021/08/08 13:19:50;;;;;;;;;;;;;;;;;;5099554;28;1417;-57
2021/08/08 13:22:15;;;;;;;;;;;;;;;;;;5103084;28;1611;-57
2021/08/08 13:24:40;;;;;;;;;;;;;;;;;;5103680;28;1228;-56
2021/08/08 13:27:05;;;;;;;;;;;;;;;;;;5106690;28;1913;-58
2021/08/08 13:29:31;;;;;;;;;;;;;;;;;;5109781;28;1312;-57
2021/08/08 13:31:56;;;;;;;;;;;;;;;;;;5109813;28;1333;-58
2021/08/08 13:34:21;;;;;;;;;;;;;;;;;;5101300;28;1398;-57
2021/08/08 13:36:46;;;;;;;;;;;;;;;;;;5108022;28;1498;-57
2021/08/08 13:39:11;;;;;;;;;;;;;;;;;;5110515;28;1186;-57
2021/08/08 13:41:38;;;;;;;;;;;;;;;;;;5109567;28;1635;-58
2021/08/08 13:44:04;;;;;;;;;;;;;;;;;;5107710;28;1368;-57
2021/08/08 13:46:29;;;;;;;;;;;;;;;;;;5110315;28;1902;-58
2021/08/08 13:48:55;;;;;;;;;;;;;;;;;;5109609;28;1308;-57
2021/08/08 13:51:20;;;;;;;;;;;;;;;;;;5108144;28;1541;-58
2021/08/08 13:53:45;;;;;;;;;;;;;;;;;;5105694;28;1479;-58
2021/08/08 13:56:11;;;;;;;;;;;;;;;;;;5108106;28;1557;-56
2021/08/08 13:58:36;;;;;;;;;;;;;;;;;;5106726;28;1529;-58
2021/08/08 14:01:02;;;;;;;;;;;;;;;;;;5110753;28;1170;-56
2021/08/08 14:03:27;;;;;;;;;;;;;;;;;;5108920;28;1435;-57
2021/08/08 14:05:52;;;;;;;;;;;;;;;;;;5110311;28;1969;-58
2021/08/08 14:08:17;;;;;;;;;;;;;;;;;;5108183;28;1585;-57
2021/08/08 14:10:43;;;;;;;;;;;;;;;;;;5108999;28;1170;-57
2021/08/08 14:13:08;;;;;;;;;;;;;;;;;;5105286;28;1581;-57
2021/08/08 14:15:34;;;;;;;;;;;;;;;;;;5108239;28;1472;-58
2021/08/08 14:17:59;;;;;;;;;;;;;;;;;;5109190;28;1255;-57
2021/08/08 14:20:24;;;;;;;;;;;;;;;;;;5108586;28;1589;-56
2021/08/08 14:22:50;;;;;;;;;;;;;;;;;;5108756;28;1068;-58
2021/08/08 14:25:15;;;;;;;;;;;;;;;;;;5110094;28;1179;-58
2021/08/08 14:27:40;;;;;;;;;;;;;;;;;;5106988;28;1981;-57
2021/08/08 14:30:06;;;;;;;;;;;;;;;;;;5106111;28;1144;-57
2021/08/08 14:32:31;;;;;;;;;;;;;;;;;;5109440;28;1277;-57
2021/08/08 14:34:56;;;;;;;;;;;;;;;;;;5107741;28;1077;-58
2021/08/08 14:37:22;;;;;;;;;;;;;;;;;;5107046;28;1640;-57
2021/08/08 14:39:47;;;;;;;;;;;;;;;;;;5103251;28;1537;-57
2021/08/08 14:42:12;;;;;;;;;;;;;;;;;;5104996;28;1654;-58
2021/08/08 14:44:38;;;;;;;;;;;;;;;;;;5108807;28;1190;-56
2021/08/08 14:47:03;;;;;;;;;;;;;;;;;;5108426;28;1973;-57
2021/08/08 14:49:28;;;;;;;;;;;;;;;;;;5108330;28;1469;-57
2021/08/08 14:51:54;;;;;;;;;;;;;;;;;;5107226;28;1549;-57
2021/08/08 14:54:19;;;;;;;;;;;;;;;;;;5106144;28;1378;-58
2021/08/08 14:56:44;;;;;;;;;;;;;;;;;;5103650;28;1640;-57
2021/08/08 14:59:09;;;;;;;;;;;;;;;;;;5105584;28;1651;-58
2021/08/08 15:01:34;;;;;;;;;;;;;;;;;;5108841;28;1183;-57
2021/08/08 15:04:00;;;;;;;;;;;;;;;;;;5109719;28;1178;-57
2021/08/08 15:06:25;;;;;;;;;;;;;;;;;;5108868;28;1972;-57
2021/08/08 15:08:50;;;;;;;;;;;;;;;;;;5107006;28;1115;-58
2021/08/08 15:11:16;;;;;;;;;;;;;;;;;;5108286;28;1513;-57
2021/08/08 15:13:41;;;;;;;;;;;;;;;;;;5105318;28;1127;-57
2021/08/08 15:16:06;;;;;;;;;;;;;;;;;;5113147;28;1736;-58
2021/08/08 15:18:31;;;;;;;;;;;;;;;;;;5111583;28;1562;-58
2021/08/08 15:20:59;;;;;;;;;;;;;;;;;;5109989;28;1564;-57
2021/08/08 15:23:24;;;;;;;;;;;;;;;;;;5108928;28;1355;-57
2021/08/08 15:25:50;;;;;;;;;;;;;;;;;;5112897;28;1914;-57
2021/08/08 15:28:15;;;;;;;;;;;;;;;;;;5107496;27;1743;-57
2021/08/08 15:30:40;;;;;;;;;;;;;;;;;;5110277;28;1120;-58
2021/08/08 15:33:05;;;;;;;;;;;;;;;;;;5112200;28;1260;-59
2021/08/08 15:35:30;;;;;;;;;;;;;;;;;;5110263;28;1648;-57
2021/08/08 15:37:55;;;;;;;;;;;;;;;;;;5111275;28;1203;-58
2021/08/08 15:40:21;;;;;;;;;;;;;;;;;;5109078;28;1673;-57
2021/08/08 15:42:46;;;;;;;;;;;;;;;;;;5110092;28;1568;-58
2021/08/08 15:45:11;;;;;;;;;;;;;;;;;;5111909;28;1107;-57
2021/08/08 15:47:36;;;;;;;;;;;;;;;;;;5112243;28;1914;-57
2021/08/08 15:50:01;;;;;;;;;;;;;;;;;;5107642;28;1668;-58
2021/08/08 15:52:27;;;;;;;;;;;;;;;;;;5109701;28;1220;-56
2021/08/08 15:54:52;;;;;;;;;;;;;;;;;;5112561;28;1063;-57
2021/08/08 15:57:17;;;;;;;;;;;;;;;;;;5111000;28;1557;-56
2021/08/08 15:59:42;;;;;;;;;;;;;;;;;;5111887;28;1511;-58
2021/08/08 16:02:07;;;;;;;;;;;;;;;;;;5113100;28;1135;-57
2021/08/08 16:04:33;;;;;;;;;;;;;;;;;;5108594;28;1629;-55
2021/08/08 16:06:58;;;;;;;;;;;;;;;;;;5109265;28;1963;-57
2021/08/08 16:09:23;;;;;;;;;;;;;;;;;;5109619;28;1341;-57
2021/08/08 16:11:48;;;;;;;;;;;;;;;;;;5107892;28;2124;-56
2021/08/08 16:14:13;;;;;;;;;;;;;;;;;;5110427;28;1233;-57
2021/08/08 16:16:39;;;;;;;;;;;;;;;;;;5112741;28;1269;-57
2021/08/08 16:19:04;;;;;;;;;;;;;;;;;;5111005;28;1804;-57
2021/08/08 16:21:29;;;;;;;;;;;;;;;;;;5108590;28;1585;-57
2021/08/08 16:23:54;;;;;;;;;;;;;;;;;;5109770;28;1189;-57
2021/08/08 16:26:19;;;;;;;;;;;;;;;;;;5106764;28;1985;-58
2021/08/08 16:28:44;;;;;;;;;;;;;;;;;;5108426;28;2093;-58
2021/08/08 16:31:10;;;;;;;;;;;;;;;;;;5112881;28;1186;-58
2021/08/08 16:33:35;;;;;;;;;;;;;;;;;;5109466;28;1436;-56
2021/08/08 16:36:00;;;;;;;;;;;;;;;;;;5108772;28;1273;-57
2021/08/08 16:38:25;;;;;;;;;;;;;;;;;;5109265;28;1578;-57
2021/08/08 16:40:50;;;;;;;;;;;;;;;;;;5108568;28;1244;-56
2021/08/08 16:43:16;;;;;;;;;;;;;;;;;;5109613;28;1577;-57
2021/08/08 16:45:41;;;;;;;;;;;;;;;;;;5107661;27;1403;-58
2021/08/08 16:48:06;;;;;;;;;;;;;;;;;;5109628;28;1898;-57
2021/08/08 16:50:31;;;;;;;;;;;;;;;;;;5107404;28;1537;-57
2021/08/08 16:52:56;;;;;;;;;;;;;;;;;;5109636;28;1550;-58
2021/08/08 16:55:22;;;;;;;;;;;;;;;;;;5110430;28;1404;-58